Tiempo atmosférico en la estación meteorológica de Aguilar de la Frontera, Córdoba (305 m.)



Fecha
DESCASC
Temp. máxima en grados centígrados (hora)
DESCASC
Temp. mínima en grados centígrados (hora)
DESCASC
Temp. media en grados centígrados
DESCASC
Racha de viento máxima en m/sg (hora)
DESCASC
Velocidad máxima media en intervalos de 10 minutos(hora)
DESCASC
Precipitaciones diarias en mm
DESCASC
Precipitaciones de 00:00 a 06:00 en mm
DESCASC
Precipitaciones de 06:00 a 12:00 en mm
DESCASC
Precipitaciones de 12:00 a 18:00 en mm
DESCASC
Precipitaciones de 18:00 a 24:00 en mm
DESCASC
11-12-2019 14.7 (14:40) 4.2 (23:50) 9.4 5.28 (12:30) 3.89 (02:40) 0 0 0 0 0
10-12-2019 17.1 (15:30) 3.2 (08:00) 10.2 5 (15:50) 3.61 (15:50) 0 0 0 0 0
09-12-2019 16.3 (15:40) 9.1 (23:10) 12.7 5 (13:30) 3.06 (16:30) 0 0 0 0 0
08-12-2019 16.6 (15:20) 4.9 (00:00) 10.8 4.17 (00:50) 3.61 (00:50) 0 0 0 0 0
07-12-2019 16.9 (15:00) 6.1 (00:00) 11.5 4.72 (03:40) 3.89 (03:40) 0 0 0 0 0
06-12-2019 17.3 (17:00) 4.6 (00:00) 10.9 3.89 (05:40) 2.78 (05:40) 0 0 0 0 0
05-12-2019 15.8 (15:20) 4.6 (00:00) 10.2 5.28 (16:40) 3.33 (17:00) 0 0 0 0 0
04-12-2019 14.6 (15:10) 7.6 (00:00) 11.1 4.17 (16:40) 2.78 (16:40) 0.6 0 0.6 0 0
03-12-2019 14.5 (16:10) 8.3 (00:00) 11.4 7.5 (13:40) 4.72 (14:20) 0 0 0 0 0
02-12-2019 15 (14:30) 7.7 (00:00) 11.3 6.39 (01:00) 4.17 (01:00) 3.8 3.4 0 0.2 0.2
01-12-2019 14.5 (13:50) 9.5 (00:00) 12 10 (14:30) 5 (06:00) 8.6 1.6 0.2 5.6 1.2
30-11-2019 18.3 (15:10) 6.6 (00:00) 12.4 6.39 (15:50) 4.17 (16:00) 0 0 0 0 0
29-11-2019 18 (14:50) 6.7 (00:00) 12.3 5.56 (13:00) 3.33 (01:20) 0 0 0 0 0
28-11-2019 16.8 (15:10) 9.6 (00:00) 13.2 4.72 (09:50) 3.89 (10:40) 0 0 0 0 0
27-11-2019 16.2 (14:30) 11.9 (00:00) 14.1 8.06 (01:40) 5 (13:10) 1.4 0.6 0.8 0 0
26-11-2019 17.6 (14:40) 12.7 (00:00) 15.2 6.67 (17:20) 3.89 (17:20) 0.6 0.2 0 0.2 0.2
25-11-2019 15.3 (16:40) 9.1 (00:00) 12.2 7.22 (18:30) 4.72 (09:00) 4.6 0 0.8 3.2 0.6
24-11-2019 14.1 (15:30) 3.6 (00:00) 8.9 6.11 (15:20) 3.61 (15:20) 0 0 0 0 0
23-11-2019 14.6 (15:00) 7.2 (00:00) 10.9 14.72 (04:30) 9.17 (12:10) 1.4 0.8 0.6 0 0
22-11-2019 15.8 (18:00) 11.6 (00:00) 13.7 20.83 (17:40) 11.67 (17:40) 39.4 7.8 5.8 18.2 7.6
21-11-2019 13.5 (13:10) 9.3 (00:00) 11.4 12.78 (15:50) 4.72 (15:50) 44.8 6.8 1.4 28.6 8
20-11-2019 10.9 (16:10) 4.3 (00:00) 7.6 6.67 (15:40) 4.17 (15:40) 4.8 0 0 3 1.8
19-11-2019 14.2 (15:40) 4.3 (00:00) 9.3 5.56 (10:50) 4.17 (11:00) 0 0 0 0 0
18-11-2019 13.9 (15:50) 4.7 (00:00) 9.3 14.72 (01:20) 8.89 (01:30) 11.6 11.6 0 0 0
17-11-2019 13 (22:10) 2.7 (00:00) 7.9 12.22 (23:40) 6.39 (23:40) 6.4 0 0.2 2.8 3.4
16-11-2019 12.2 (16:20) -1.2 (-00:0) 5.5 5 (16:30) 3.33 (00:10) 0 0 0 0 0
15-11-2019 10.9 (13:30) 4 (00:00) 7.4 8.06 (00:10) 5.28 (12:30) 0 0 0 0 0

Gráficas

Temp. máximas Temp. mínimas Temp. medias Precipitaciones Rachas de viento máximas Velocidades máximas media en intervalos de 10 minutos

Datos horarios

Fecha y hora oficial Temperatura (ºC) Velocidad del viento (km/h) Dirección del viento Racha (km/h) Dirección de racha Precipitación (mm) Presión (hPa) Tendencia (hPa) Humedad (%)
2019-12-14 23:00:00 9 3 Sur 10 Este 0 -- -- 85
2019-12-14 22:00:00 9.9 9 Este 12 Este 0 -- -- 83
2019-12-14 21:00:00 10.7 0 Calma 6 Este 0 -- -- 78
2019-12-14 20:00:00 11.2 4 Este 7 Sudeste 0 -- -- 80
2019-12-14 19:00:00 11.7 6 Este 7 Este 0 -- -- 78
2019-12-14 18:00:00 12.8 0 Calma 4 Oeste 0 -- -- 73
2019-12-14 17:00:00 13.4 0 Calma 14 Noroeste 0 -- -- 65
2019-12-14 16:00:00 13.6 8 Norte 17 Noroeste 0 -- -- 64
2019-12-14 15:00:00 14 9 Noroeste 18 Noroeste 0 -- -- 65
2019-12-14 14:00:00 13.3 10 Noroeste 15 Noroeste 0 -- -- 68
2019-12-14 13:00:00 13.2 8 Noroeste 14 Noroeste 0 -- -- 73
2019-12-14 12:00:00 13 3 Oeste 7 Oeste 0 -- -- 76
2019-12-14 11:00:00 11.9 2 Norte 6 Noroeste 0 -- -- 90
2019-12-14 10:00:00 11.1 3 Sudeste 4 Este 0 -- -- 97
2019-12-14 09:00:00 10.9 0 Calma 4 Oeste 0 -- -- 97
2019-12-14 08:00:00 11 0 Calma 4 Sur 0 -- -- 97
2019-12-14 07:00:00 11.1 0 Calma 4 Sur 0 -- -- 97
2019-12-14 06:00:00 11.1 0 Calma 4 Este 0 -- -- 96
2019-12-14 05:00:00 11.3 3 Este 4 Sudeste 0 -- -- 96
2019-12-14 04:00:00 11.4 0 Calma 6 Oeste 0 -- -- 97
2019-12-14 03:00:00 11.5 2 Sudoeste 7 Sudoeste 0 -- -- 96
2019-12-14 02:00:00 11.6 2 Sur 8 Sudoeste 0 -- -- 96
2019-12-14 01:00:00 11.8 2 Sudoeste 10 Sudoeste 0 -- -- 94
2019-12-14 00:00:00 12.1 4 Sur 8 Oeste 0 -- -- 94
2019-12-13 23:00:00 12.5 4 Oeste 11 Oeste 0 -- -- 93
2019-12-13 22:00:00 12.8 6 Sudoeste 14 Sudoeste 0 -- -- 92
2019-12-13 21:00:00 12.9 3 Sudoeste 15 Oeste 0 -- -- 90
2019-12-13 20:00:00 13 6 Sudoeste 19 Sudoeste 0 -- -- 88
2019-12-13 19:00:00 13.4 11 Oeste 26 Oeste 0 -- -- 86
2019-12-13 18:00:00 14 11 Sudoeste 32 Sudoeste 0 -- -- 84
2019-12-13 17:00:00 14.5 19 Sudoeste 33 Oeste 0 -- -- 82
2019-12-13 16:00:00 15 19 Oeste 35 Sudoeste 0 -- -- 79
2019-12-13 15:00:00 14.4 22 Oeste 36 Oeste 0 -- -- 82
2019-12-13 14:00:00 14.2 22 Oeste 39 Oeste 0 -- -- 82
2019-12-13 13:00:00 14.2 23 Oeste 42 Oeste 0 -- -- 82
2019-12-13 12:00:00 14 18 Oeste 37 Oeste 0 -- -- 86
2019-12-13 11:00:00 13.1 19 Sudoeste 37 Oeste 0 -- -- 90
2019-12-13 10:00:00 12.7 14 Sudoeste 30 Sudoeste 0 -- -- 92
2019-12-13 09:00:00 12 14 Oeste 25 Sudoeste 0 -- -- 96
2019-12-13 08:00:00 12 13 Oeste 26 Oeste 0 -- -- 96
2019-12-13 07:00:00 12.1 18 Oeste 30 Oeste 0 -- -- 95
2019-12-13 06:00:00 11.9 15 Oeste 34 Sudoeste 0 -- -- 96
2019-12-13 05:00:00 11.7 20 Oeste 39 Oeste 0 -- -- 95
2019-12-13 04:00:00 11.5 22 Oeste 36 Oeste 0 -- -- 94
2019-12-13 03:00:00 11.3 20 Oeste 43 Oeste 0 -- -- 92
2019-12-13 02:00:00 11.4 23 Oeste 40 Sudoeste 0 -- -- 90
2019-12-13 01:00:00 11.5 21 Sudoeste 35 Oeste 0 -- -- 87
2019-12-13 00:00:00 11.3 19 Sudoeste 33 Oeste 0 -- -- 86
2019-12-12 23:00:00 11.3 20 Sudoeste 34 Sudoeste 0 -- -- 85
2019-12-12 22:00:00 11.2 15 Sudoeste 28 Sudoeste 0 -- -- 83
2019-12-12 21:00:00 11 14 Sudoeste 26 Sudoeste 0 -- -- 83
2019-12-12 20:00:00 11.1 17 Sudoeste 32 Sudoeste 0 -- -- 82
2019-12-12 19:00:00 11.6 11 Oeste 19 Sudoeste 0 -- -- 75
2019-12-12 18:00:00 11.7 12 Sudoeste 21 Sudoeste 0 -- -- 75
2019-12-12 17:00:00 11.9 11 Sudoeste 26 Sudoeste 0 -- -- 75
2019-12-12 16:00:00 12 16 Oeste 27 Oeste 0 -- -- 73
2019-12-12 15:00:00 12.3 12 Oeste 21 Sudoeste 0 -- -- 69
2019-12-12 14:00:00 12.1 11 Sudoeste 19 Sur 0 -- -- 65
2019-12-12 13:00:00 10.9 7 Oeste 17 Oeste 0 -- -- 70
2019-12-12 12:00:00 9.6 10 Oeste 19 Oeste 0 -- -- 70
2019-12-12 11:00:00 8.4 3 Sudeste 12 Sudeste 0 -- -- 78
2019-12-12 10:00:00 5.4 8 Sudeste 14 Sudeste 0 -- -- 95
2019-12-12 09:00:00 3 7 Sudeste 11 Sudeste 0 -- -- 98
2019-12-12 08:00:00 2.5 4 Sudeste 14 Sudeste 0 -- -- 98
2019-12-12 07:00:00 2.9 9 Sudeste 13 Sudeste 0 -- -- 98
2019-12-12 06:00:00 2 0 Calma 9 Sudeste 0 -- -- 97
2019-12-12 05:00:00 2.2 2 Sur 3 Sudeste 0 -- -- 96
2019-12-12 04:00:00 1.9 2 Sur 5 Sur 0 -- -- 96
2019-12-12 03:00:00 2.8 3 Sudeste 5 Este 0 -- -- 97
2019-12-12 02:00:00 3.2 0 Calma 10 Sudeste 0 -- -- 95
2019-12-12 01:00:00 3.8 5 Sudeste 9 Sudeste 0 -- -- 96
2019-12-12 00:00:00 4.2 6 Sudeste 8 Sudeste 0 -- -- 94
2019-12-11 23:00:00 5.1 3 Sudeste 5 Sudeste 0 -- -- 92
2019-12-11 22:00:00 6.4 4 Este 6 Este 0 -- -- 90
2019-12-11 21:00:00 8 0 Calma 6 Noroeste 0 -- -- 87
2019-12-11 20:00:00 9.7 6 Noroeste 16 Noroeste 0 -- -- 84
2019-12-11 19:00:00 9.9 8 Noroeste 14 Oeste 0 -- -- 88
2019-12-11 18:00:00 11.7 9 Oeste 16 Oeste 0 -- -- 78
2019-12-11 17:00:00 12.4 12 Oeste 18 Oeste 0 -- -- 76
2019-12-11 16:00:00 13 13 Oeste 19 Oeste 0 -- -- 74
2019-12-11 15:00:00 13.8 6 Sudoeste 15 Oeste 0 -- -- 70
2019-12-11 14:00:00 13.6 7 Oeste 16 Oeste 0 -- -- 75
2019-12-11 13:00:00 12.5 9 Oeste 19 Oeste 0 -- -- 79
2019-12-11 12:00:00 12.3 9 Oeste 14 Oeste 0 -- -- 79
2019-12-11 11:00:00 11.1 4 Sudoeste 12 Sudeste 0 -- -- 78
2019-12-11 10:00:00 8.5 3 Sudeste 16 Sudeste 0 -- -- 81
2019-12-11 09:00:00 5.8 11 Sudeste 17 Sudeste 0 -- -- 85
2019-12-11 08:00:00 4.9 6 Sudeste 12 Sudeste 0 -- -- 87
2019-12-11 07:00:00 5.3 0 Calma 4 Noroeste 0 -- -- 86
2019-12-11 06:00:00 5.9 0 Calma 10 Sudeste 0 -- -- 85
2019-12-11 05:00:00 7.1 0 Calma 14 Sudeste 0 -- -- 84
2019-12-11 04:00:00 7 11 Sudeste 17 Este 0 -- -- 82
2019-12-11 03:00:00 7.4 14 Sudeste 17 Sudeste 0 -- -- 83
2019-12-11 02:00:00 6.9 0 Calma 16 Sudeste 0 -- -- 86
2019-12-11 01:00:00 6 2 Sudeste 9 Este 0 -- -- 90
2019-12-11 00:00:00 7 3 Este 10 Sudeste 0 -- -- 86
2019-12-10 23:00:00 6.4 3 Este 7 Este 0 -- -- 87
2019-12-10 22:00:00 8.4 6 Este 10 Este 0 -- -- 78
2019-12-10 21:00:00 7.9 4 Este 7 Este 0 -- -- 78
2019-12-10 20:00:00 7.8 4 Este 9 Sudeste 0 -- -- 79
2019-12-10 19:00:00 10.7 0 Calma 4 Este 0 -- -- 67
2019-12-10 18:00:00 14.3 0 Calma 14 Noroeste 0 -- -- 53
2019-12-10 17:00:00 16.6 9 Norte 17 Norte 0 -- -- 46
2019-12-10 16:00:00 16.9 10 Norte 18 Norte 0 -- -- 46
2019-12-10 15:00:00 16.7 9 Noroeste 15 Noroeste 0 -- -- 51
2019-12-10 14:00:00 15.3 5 Noroeste 12 Norte 0 -- -- 60
2019-12-10 13:00:00 13.4 5 Norte 12 Nordeste 0 -- -- 69
2019-12-10 12:00:00 11.4 3 Noroeste 5 Oeste 0 -- -- 81
2019-12-10 11:00:00 9.3 2 Nordeste 6 Norte 0 -- -- 90
2019-12-10 10:00:00 7.2 2 Oeste 3 Sudoeste 0 -- -- 98
2019-12-10 09:00:00 4.5 0 Calma 13 Este 0 -- -- 99
2019-12-10 08:00:00 3.2 9 Este 12 Este 0 -- -- 98
2019-12-10 07:00:00 3.9 3 Este 9 Este 0 -- -- 98
2019-12-10 06:00:00 4.6 3 Este 6 Sudeste 0 -- -- 98
2019-12-10 05:00:00 7 3 Nordeste 13 Nordeste 0 -- -- 98
2019-12-10 04:00:00 7.4 4 Nordeste 9 Nordeste 0 -- -- 96
2019-12-10 03:00:00 8.3 0 Calma 6 Nordeste 0 -- -- 94
2019-12-10 02:00:00 9.1 5 Este 12 Nordeste 0 -- -- 94
2019-12-10 01:00:00 9.7 3 Nordeste 10 Nordeste 0 -- -- 92
2019-12-10 00:00:00 10.4 7 Nordeste 16 Nordeste 0 -- -- 89
2019-12-09 23:00:00 9.2 0 Calma 5 Este 0 -- -- 91
2019-12-09 22:00:00 9.9 2 Este 6 Este 0 -- -- 90
2019-12-09 21:00:00 10.2 0 Calma 6 Nordeste 0 -- -- 91
2019-12-09 20:00:00 10.5 3 Norte 10 Este 0 -- -- 90
2019-12-09 19:00:00 12.2 0 Calma 12 Noroeste 0 -- -- 84
2019-12-09 18:00:00 14 8 Noroeste 13 Noroeste 0 -- -- 77
2019-12-09 17:00:00 15.9 9 Noroeste 18 Noroeste 0 -- -- 70
2019-12-09 16:00:00 16.3 7 Norte 17 Norte 0 -- -- 68
2019-12-09 15:00:00 16 8 Noroeste 16 Noroeste 0 -- -- 71
2019-12-09 14:00:00 15.1 9 Norte 18 Norte 0 -- -- 75
2019-12-09 13:00:00 14.7 8 Norte 14 Norte 0 -- -- 77
2019-12-09 12:00:00 14.6 7 Noroeste 14 Norte 0 -- -- 81
2019-12-09 11:00:00 12.6 3 Norte 7 Noroeste 0 -- -- 90
2019-12-09 10:00:00 11.7 0 Calma 3 Oeste 0 -- -- 93
2019-12-09 09:00:00 11.1 0 Calma 2 Nordeste 0 -- -- 94
2019-12-09 08:00:00 10.8 3 Sudoeste 4 Oeste 0 -- -- 93
2019-12-09 07:00:00 10.7 0 Calma 5 Oeste 0 -- -- 93
2019-12-09 06:00:00 10.6 0 Calma 5 Este 0 -- -- 92
2019-12-09 05:00:00 10.4 4 Este 6 Este 0 -- -- 92
2019-12-09 04:00:00 10.9 2 Sudeste 5 Sudeste 0 -- -- 89
2019-12-09 03:00:00 10.9 0 Calma 7 Sudeste 0 -- -- 88
2019-12-09 02:00:00 10.8 2 Nordeste 12 Sudeste 0 -- -- 88
2019-12-09 01:00:00 11.3 8 Sudeste 10 Sudeste 0 -- -- 85
2019-12-09 00:00:00 10.5 6 Sudeste 9 Sudeste 0 -- -- 90
2019-12-08 23:00:00 9.3 2 Este 6 Sudeste 0 -- -- 91
2019-12-08 22:00:00 10.2 4 Este 11 Sudeste 0 -- -- 87
2019-12-08 21:00:00 10.7 4 Sudeste 8 Sudeste 0 -- -- 86
2019-12-08 20:00:00 11.8 3 Este 4 Este 0 -- -- 83
2019-12-08 19:00:00 12.8 0 Calma 2 Norte 0 -- -- 79
2019-12-08 18:00:00 14 0 Calma 10 Noroeste 0 -- -- 73
2019-12-08 17:00:00 14.9 7 Oeste 13 Oeste 0 -- -- 68
2019-12-08 16:00:00 16.3 8 Oeste 14 Oeste 0 -- -- 60
2019-12-08 15:00:00 16.5 8 Oeste 14 Oeste 0 -- -- 59
2019-12-08 14:00:00 16 6 Oeste 13 Oeste 0 -- -- 59
2019-12-08 13:00:00 15 3 Sur 9 Sudoeste 0 -- -- 68
2019-12-08 12:00:00 14.1 4 Sur 9 Sudeste 0 -- -- 71
2019-12-08 11:00:00 10.6 3 Norte 8 Norte 0 -- -- 86
2019-12-08 10:00:00 9.4 4 Este 13 Este 0 -- -- 90
2019-12-08 09:00:00 6.1 2 Este 10 Este 0 -- -- 98
2019-12-08 08:00:00 4.9 4 Este 6 Sudeste 0 -- -- 97
2019-12-08 07:00:00 5.2 0 Calma 8 Este 0 -- -- 96
2019-12-08 06:00:00 5.4 3 Este 8 Este 0 -- -- 96
2019-12-08 05:00:00 5.7 0 Calma 6 Este 0 -- -- 95
2019-12-08 04:00:00 6.4 3 Sudeste 12 Sudeste 0 -- -- 94
2019-12-08 03:00:00 7.1 11 Sudeste 14 Sudeste 0 -- -- 95
2019-12-08 02:00:00 7.3 3 Este 14 Sudeste 0 -- -- 93
2019-12-08 01:00:00 8 12 Sudeste 15 Sudeste 0 -- -- 95
2019-12-08 00:00:00 6.9 3 Este 10 Sudeste 0 -- -- 94
2019-12-07 23:00:00 7.7 6 Sudeste 12 Este 0 -- -- 94
2019-12-07 22:00:00 7.6 0 Calma 7 Este 0 -- -- 89
2019-12-07 21:00:00 8.4 4 Este 9 Este 0 -- -- 91
2019-12-07 20:00:00 8.8 5 Sudeste 8 Sudeste 0 -- -- 89
2019-12-07 19:00:00 11.5 3 Este 5 Este 0 -- -- 80
2019-12-07 18:00:00 15.1 0 Calma 7 Oeste 0 -- -- 67
2019-12-07 17:00:00 16.5 4 Oeste 9 Noroeste 0 -- -- 57
2019-12-07 16:00:00 16.7 4 Norte 12 Noroeste 0 -- -- 60
2019-12-07 15:00:00 16.9 6 Oeste 11 Oeste 0 -- -- 59
2019-12-07 14:00:00 16.5 4 Oeste 9 Sudoeste 0 -- -- 61
2019-12-07 13:00:00 15.2 2 Noroeste 10 Oeste 0 -- -- 65
2019-12-07 12:00:00 14.1 6 Noroeste 9 Oeste 0 -- -- 75
2019-12-07 11:00:00 11.2 0 Calma 4 Norte 0 -- -- 82
2019-12-07 10:00:00 9.1 2 Este 8 Este 0 -- -- 89
2019-12-07 09:00:00 7.1 4 Este 10 Este 0 -- -- 95
2019-12-07 08:00:00 6.3 3 Sudeste 12 Sudeste 0 -- -- 94
2019-12-07 07:00:00 7.2 5 Este 9 Este 0 -- -- 92
2019-12-07 06:00:00 6.9 6 Este 14 Sudeste 0 -- -- 93
2019-12-07 05:00:00 7.7 12 Sudeste 15 Sudeste 0 -- -- 91
2019-12-07 04:00:00 8.6 11 Sudeste 17 Sudeste 0 -- -- 87
2019-12-07 03:00:00 8.7 12 Sudeste 14 Este 0 -- -- 89
2019-12-07 02:00:00 9.2 9 Sudeste 14 Sudeste 0 -- -- 94
2019-12-07 01:00:00 9.7 7 Sudeste 15 Sudeste 0 -- -- 92
2019-12-07 00:00:00 8.2 7 Sudeste 9 Sudeste 0 -- -- 95
2019-12-06 23:00:00 9.2 0 Calma 7 Sudeste 0 -- -- 90
2019-12-06 22:00:00 10.1 3 Nordeste 12 Este 0 -- -- 88
2019-12-06 21:00:00 10.1 0 Calma 9 Este 0 -- -- 86
2019-12-06 20:00:00 10.2 5 Este 8 Este 0 -- -- 84
2019-12-06 19:00:00 11.9 4 Este 5 Este 0 -- -- 80
2019-12-06 18:00:00 15.5 0 Calma 7 Noroeste 0 -- -- 65
2019-12-06 17:00:00 17.3 2 Oeste 14 Noroeste 0 -- -- 57
2019-12-06 16:00:00 17.2 7 Oeste 12 Oeste 0 -- -- 61
2019-12-06 15:00:00 17 5 Oeste 12 Oeste 0 -- -- 59
2019-12-06 14:00:00 15.7 3 Noroeste 6 Noroeste 0 -- -- 60
2019-12-06 13:00:00 14.7 3 Oeste 6 Oeste 0 -- -- 64
2019-12-06 12:00:00 13 4 Norte 12 Norte 0 -- -- 75
2019-12-06 11:00:00 10.4 2 Noroeste 7 Norte 0 -- -- 86
2019-12-06 10:00:00 7.9 0 Calma 6 Este 0 -- -- 93
2019-12-06 09:00:00 5.3 4 Este 6 Este 0 -- -- 97
2019-12-06 08:00:00 5.2 0 Calma 4 Este 0 -- -- 96
2019-12-06 07:00:00 5.6 0 Calma 11 Sudeste 0 -- -- 94
2019-12-06 06:00:00 6.4 4 Sudeste 14 Este 0 -- -- 94
2019-12-06 05:00:00 6.9 2 Este 8 Nordeste 0 -- -- 94
2019-12-06 04:00:00 6.6 2 Norte 9 Norte 0 -- -- 95
2019-12-06 03:00:00 6.7 3 Este 7 Nordeste 0 -- -- 94
2019-12-06 02:00:00 6.9 4 Nordeste 6 Nordeste 0 -- -- 94
2019-12-06 01:00:00 7.5 2 Este 6 Norte 0 -- -- 93
2019-12-06 00:00:00 8.1 2 Nordeste 9 Este 0 -- -- 93
2019-12-05 23:00:00 9 0 Calma 7 Este 0 -- -- 91
2019-12-05 22:00:00 10.6 0 Calma 4 Este 0 -- -- 88
2019-12-05 21:00:00 11.3 4 Este 16 Este 0 -- -- 85
2019-12-05 20:00:00 11.6 12 Este 15 Este 0 -- -- 85
2019-12-05 19:00:00 12.8 11 Nordeste 17 Nordeste 0 -- -- 77
2019-12-05 18:00:00 13.2 7 Nordeste 18 Nordeste 0 -- -- 74
2019-12-05 17:00:00 14.3 12 Nordeste 19 Nordeste 0 -- -- 67
2019-12-05 16:00:00 14.9 9 Norte 18 Norte 0 -- -- 65
2019-12-05 15:00:00 15.2 6 Norte 17 Nordeste 0 -- -- 64
2019-12-05 14:00:00 14.7 8 Nordeste 17 Nordeste 0 -- -- 65
2019-12-05 13:00:00 14.2 9 Norte 17 Norte 0 -- -- 74
2019-12-05 12:00:00 12.7 4 Norte 12 Norte 0 -- -- 74
2019-12-05 11:00:00 11.2 5 Norte 12 Norte 0 -- -- 80
2019-12-05 10:00:00 8.1 0 Calma 6 Este 0 -- -- 86
2019-12-05 09:00:00 5.8 3 Este 6 Sudeste 0 -- -- 92
2019-12-05 08:00:00 4.9 3 Nordeste 8 Nordeste 0 -- -- 92
2019-12-05 07:00:00 4.9 3 Este 8 Sudeste 0 -- -- 92
2019-12-05 06:00:00 5.8 5 Este 14 Sudeste 0 -- -- 91
2019-12-05 05:00:00 5.6 5 Este 9 Este 0 -- -- 89
2019-12-05 04:00:00 5.9 5 Este 10 Sudeste 0 -- -- 90
2019-12-05 03:00:00 7.3 8 Sudeste 12 Sudeste 0 -- -- 86
2019-12-05 02:00:00 7.3 6 Sudeste 6 Sudeste 0 -- -- 86
2019-12-05 01:00:00 7.1 0 Calma 8 Sudoeste 0 -- -- 86
2019-12-05 00:00:00 7.9 5 Sudeste 7 Sudeste 0 -- -- 90
2019-12-04 23:00:00 7.8 0 Calma 4 Sur 0 -- -- 91
2019-12-04 22:00:00 7.8 3 Sur 5 Sudoeste 0 -- -- 89
2019-12-04 21:00:00 9.1 0 Calma 10 Sudoeste 0 -- -- 88
2019-12-04 20:00:00 8.2 0 Calma 7 Sudeste 0 -- -- 90
2019-12-04 19:00:00 9.2 4 Este 6 Este 0 -- -- 88
2019-12-04 18:00:00 12.2 0 Calma 12 Oeste 0 -- -- 73
2019-12-04 17:00:00 13.6 8 Oeste 15 Noroeste 0 -- -- 67
2019-12-04 16:00:00 14.2 6 Oeste 12 Oeste 0 -- -- 68
2019-12-04 15:00:00 14 5 Oeste 12 Oeste 0 -- -- 68
2019-12-04 14:00:00 12.6 7 Oeste 13 Oeste 0 -- -- 75
2019-12-04 13:00:00 11.9 4 Noroeste 13 Norte 0 -- -- 82
2019-12-04 12:00:00 11.1 3 Noroeste 8 Norte 0 -- -- 90
2019-12-04 11:00:00 10.2 4 Sudoeste 9 Sur 0 -- -- 95
2019-12-04 10:00:00 8.6 0 Calma 4 Norte 0.2 -- -- 97
2019-12-04 09:00:00 8.1 2 Norte 8 Sudeste 0 -- -- 97
2019-12-04 08:00:00 7.7 6 Sudeste 9 Sudeste 0 -- -- 96
2019-12-04 07:00:00 8.1 0 Calma 6 Nordeste 0.4 -- -- 94
2019-12-04 06:00:00 8.4 3 Nordeste 5 Norte 0 -- -- 90
2019-12-04 05:00:00 8.5 0 Calma 4 Norte 0 -- -- 91
2019-12-04 04:00:00 8.6 4 Nordeste 8 Este 0 -- -- 89
2019-12-04 03:00:00 8.8 3 Nordeste 6 Norte 0 -- -- 88
2019-12-04 02:00:00 9.5 4 Nordeste 14 Norte 0 -- -- 82
2019-12-04 01:00:00 9.7 6 Norte 12 Norte 0 -- -- 83
2019-12-04 00:00:00 9.4 4 Nordeste 8 Nordeste 0 -- -- 87
2019-12-03 23:00:00 10 3 Sudeste 8 Nordeste 0 -- -- 84
2019-12-03 22:00:00 10.5 7 Nordeste 10 Nordeste 0 -- -- 82
2019-12-03 21:00:00 10.9 3 Nordeste 10 Norte 0 -- -- 81
2019-12-03 20:00:00 11.1 5 Nordeste 10 Nordeste 0 -- -- 81
2019-12-03 19:00:00 11.6 8 Nordeste 10 Nordeste 0 -- -- 79
2019-12-03 18:00:00 13 5 Nordeste 15 Nordeste 0 -- -- 71
2019-12-03 17:00:00 14.4 9 Nordeste 19 Nordeste 0 -- -- 66
2019-12-03 16:00:00 14.4 10 Nordeste 25 Nordeste 0 -- -- 66
2019-12-03 15:00:00 14 12 Norte 26 Nordeste 0 -- -- 68
2019-12-03 14:00:00 13.7 16 Norte 27 Norte 0 -- -- 69
2019-12-03 13:00:00 12.7 14 Nordeste 21 Nordeste 0 -- -- 73
2019-12-03 12:00:00 12 10 Norte 20 Nordeste 0 -- -- 77
2019-12-03 11:00:00 10.6 10 Norte 20 Norte 0 -- -- 82
2019-12-03 10:00:00 10 5 Norte 20 Norte 0 -- -- 85
2019-12-03 09:00:00 9.4 6 Norte 15 Norte 0 -- -- 88
2019-12-03 08:00:00 8.4 3 Norte 12 Nordeste 0 -- -- 90
2019-12-03 07:00:00 9 4 Norte 12 Este 0 -- -- 88
2019-12-03 06:00:00 8.9 9 Este 13 Este 0 -- -- 91
2019-12-03 05:00:00 9.4 5 Nordeste 8 Norte 0 -- -- 90
2019-12-03 04:00:00 10.3 7 Nordeste 14 Nordeste 0 -- -- 85
2019-12-03 03:00:00 10.9 5 Nordeste 23 Norte 0 -- -- 84
2019-12-03 02:00:00 10.8 10 Norte 17 Noroeste 0 -- -- 85
2019-12-03 01:00:00 10.5 9 Nordeste 21 Nordeste 0 -- -- 87
2019-12-03 00:00:00 10.1 8 Nordeste 20 Nordeste 0 -- -- 87
2019-12-02 23:00:00 8.2 3 Nordeste 7 Sudeste 0.2 -- -- 93
2019-12-02 22:00:00 8.7 4 Nordeste 11 Este 0 -- -- 94
2019-12-02 21:00:00 9.6 6 Este 9 Este 0 -- -- 94
2019-12-02 20:00:00 11.1 2 Sudoeste 15 Sudeste 0 -- -- 90
2019-12-02 19:00:00 11.3 3 Este 20 Sur 0 -- -- 87
2019-12-02 18:00:00 13.2 13 Sudeste 22 Sudeste 0 -- -- 81
2019-12-02 17:00:00 14.1 8 Nordeste 18 Nordeste 0 -- -- 74
2019-12-02 16:00:00 14.3 13 Nordeste 22 Nordeste 0 -- -- 75
2019-12-02 15:00:00 14.4 13 Norte 22 Norte 0.2 -- -- 75
2019-12-02 14:00:00 13.8 8 Norte 18 Norte 0 -- -- 77
2019-12-02 13:00:00 13 9 Norte 17 Norte 0 -- -- 83
2019-12-02 12:00:00 13.1 4 Este 8 Nordeste 0 -- -- 75
2019-12-02 11:00:00 11.9 3 Noroeste 5 Oeste 0 -- -- 90
2019-12-02 10:00:00 9.6 0 Calma 7 Sudoeste 0 -- -- 97
2019-12-02 09:00:00 7.7 3 Norte 5 Este 0 -- -- 97
2019-12-02 08:00:00 8.3 2 Este 8 Sudeste 0 -- -- 97
2019-12-02 07:00:00 8.6 0 Calma 6 Este 0 -- -- 98
2019-12-02 06:00:00 8.8 3 Norte 6 Norte 0 -- -- 97
2019-12-02 05:00:00 9.2 3 Nordeste 13 Este 0 -- -- 97
2019-12-02 04:00:00 9.5 10 Este 13 Este 0 -- -- 98
2019-12-02 03:00:00 9 3 Este 13 Nordeste 0.2 -- -- 97
2019-12-02 02:00:00 8.8 8 Nordeste 19 Norte 2.2 -- -- 97
2019-12-02 01:00:00 9.5 15 Norte 23 Norte 1 -- -- 95
2019-12-02 00:00:00 10.2 8 Sudeste 13 Sudeste 0.4 -- -- 96
2019-12-01 23:00:00 10.3 9 Sudeste 16 Sudeste 0.8 -- -- 96
2019-12-01 22:00:00 10.5 8 Sur 13 Sur 0 -- -- 95
2019-12-01 21:00:00 10.4 9 Sudeste 13 Sudeste 0 -- -- 96
2019-12-01 20:00:00 10.3 0 Calma 14 Sur 0 -- -- 95
2019-12-01 19:00:00 10.9 8 Sur 18 Sur 0 -- -- 95
2019-12-01 18:00:00 11.4 10 Sur 26 Sudoeste 2.2 -- -- 95
2019-12-01 17:00:00 11.7 10 Sur 17 Sur 3 -- -- 94
2019-12-01 16:00:00 12.3 9 Sur 18 Sudeste 0.2 -- -- 92
2019-12-01 15:00:00 11.9 10 Sudoeste 36 Sudoeste 0.2 -- -- 93
2019-12-01 14:00:00 14.3 14 Sudoeste 26 Sudoeste 0 -- -- 70
2019-12-01 13:00:00 13.5 12 Sudoeste 22 Sudoeste 0 -- -- 73
2019-12-01 12:00:00 13 13 Sudoeste 18 Oeste 0 -- -- 86
2019-12-01 11:00:00 11.9 9 Sur 17 Sur 0.2 -- -- 94
2019-12-01 10:00:00 11.4 4 Sudeste 7 Sur 0 -- -- 98
2019-12-01 09:00:00 10.7 2 Sur 7 Sudeste 0 -- -- 98
2019-12-01 08:00:00 10.1 5 Sur 12 Sur 0 -- -- 98
2019-12-01 07:00:00 10.4 2 Sudoeste 21 Sudoeste 0 -- -- 97
2019-12-01 06:00:00 11.7 18 Oeste 31 Oeste 0 -- -- 98
2019-12-01 05:00:00 12.4 12 Oeste 26 Sudoeste 0 -- -- 98
2019-12-01 04:00:00 12.8 17 Sudoeste 27 Sudoeste 0 -- -- 98
2019-12-01 03:00:00 12.9 16 Oeste 24 Sudoeste 0.6 -- -- 98
2019-12-01 02:00:00 13 11 Sudoeste 23 Sur 1 -- -- 95
2019-12-01 01:00:00 14 11 Sudoeste 20 Sur 0 -- -- 83
2019-12-01 00:00:00 13.9 10 Sur 17 Sudoeste 0 -- -- 81
2019-11-30 23:00:00 14.1 10 Sur 17 Sur 0 -- -- 84
2019-11-30 22:00:00 14.2 10 Sur 17 Sur 0 -- -- 83
2019-11-30 21:00:00 14.4 9 Sur 15 Sudoeste 0 -- -- 82
2019-11-30 20:00:00 14.4 9 Sudoeste 13 Sur 0 -- -- 82
2019-11-30 19:00:00 14.2 5 Sudoeste 17 Sudoeste 0 -- -- 82
2019-11-30 18:00:00 15 8 Sudoeste 20 Sudoeste 0 -- -- 79
2019-11-30 17:00:00 17.1 12 Sudoeste 19 Sudoeste 0 -- -- 71
2019-11-30 16:00:00 17.9 15 Oeste 23 Oeste 0 -- -- 64
2019-11-30 15:00:00 18 8 Oeste 13 Oeste 0 -- -- 67
2019-11-30 14:00:00 17.4 8 Oeste 17 Noroeste 0 -- -- 72
2019-11-30 13:00:00 16.7 7 Noroeste 10 Oeste 0 -- -- 71
2019-11-30 12:00:00 15.3 5 Norte 8 Este 0 -- -- 79
2019-11-30 11:00:00 14.5 2 Sudeste 12 Sudeste 0 -- -- 81
2019-11-30 10:00:00 11.3 0 Calma 6 Este 0 -- -- 96
2019-11-30 09:00:00 7.9 5 Sudeste 7 Sudeste 0 -- -- 99
2019-11-30 08:00:00 6.9 3 Este 8 Este 0 -- -- 97
2019-11-30 07:00:00 7.8 3 Este 7 Nordeste 0 -- -- 97
2019-11-30 06:00:00 8.5 3 Este 6 Este 0 -- -- 98
2019-11-30 05:00:00 8 0 Calma 7 Sudeste 0 -- -- 97
2019-11-30 04:00:00 8 5 Sudeste 10 Sudeste 0 -- -- 97
2019-11-30 03:00:00 7.7 3 Este 5 Este 0 -- -- 96
2019-11-30 02:00:00 8.6 4 Este 5 Este 0 -- -- 94
2019-11-30 01:00:00 10 2 Este 12 Sudeste 0 -- -- 92
2019-11-30 00:00:00 11.1 9 Sudeste 15 Sudeste 0 -- -- 90
2019-11-29 23:00:00 10.8 9 Este 13 Sudeste 0 -- -- 92
2019-11-29 22:00:00 10.6 6 Sudeste 10 Este 0 -- -- 92
2019-11-29 21:00:00 11.3 3 Este 4 Este 0 -- -- 89
2019-11-29 20:00:00 11.7 0 Calma 2 Norte 0 -- -- 87
2019-11-29 19:00:00 13.2 0 Calma 8 Este 0 -- -- 82
2019-11-29 18:00:00 15.4 5 Nordeste 15 Norte 0 -- -- 73
2019-11-29 17:00:00 16.8 9 Norte 19 Norte 0 -- -- 67
2019-11-29 16:00:00 17.8 11 Norte 19 Norte 0 -- -- 64
2019-11-29 15:00:00 17.8 9 Norte 16 Norte 0 -- -- 64
2019-11-29 14:00:00 17.6 8 Norte 19 Norte 0 -- -- 67
2019-11-29 13:00:00 17.3 10 Norte 20 Norte 0 -- -- 67
2019-11-29 12:00:00 15.6 5 Noroeste 9 Norte 0 -- -- 75
2019-11-29 11:00:00 13.8 3 Sudoeste 9 Sudeste 0 -- -- 80
2019-11-29 10:00:00 11.9 6 Sudeste 9 Sudeste 0 -- -- 87
2019-11-29 09:00:00 8.8 3 Sudeste 6 Sudeste 0 -- -- 98
2019-11-29 08:00:00 7.2 3 Sudeste 6 Sudeste 0 -- -- 98
2019-11-29 07:00:00 6.8 4 Sudeste 5 Este 0 -- -- 97
2019-11-29 06:00:00 7 4 Este 6 Sudeste 0 -- -- 97
2019-11-29 05:00:00 6.8 4 Este 6 Sudeste 0 -- -- 96
2019-11-29 04:00:00 7.7 5 Este 7 Este 0 -- -- 94
2019-11-29 03:00:00 8.8 3 Este 13 Sudeste 0 -- -- 91
2019-11-29 02:00:00 8.8 3 Este 15 Sudeste 0 -- -- 92
2019-11-29 01:00:00 9.3 6 Sudeste 13 Sudeste 0 -- -- 93
2019-11-29 00:00:00 9.6 5 Este 8 Sudeste 0 -- -- 93
2019-11-28 23:00:00 10.3 0 Calma 10 Este 0 -- -- 91
2019-11-28 22:00:00 11 9 Sudeste 13 Sudeste 0 -- -- 90
2019-11-28 21:00:00 11.2 4 Este 10 Este 0 -- -- 91
2019-11-28 20:00:00 11.6 8 Este 11 Este 0 -- -- 89
2019-11-28 19:00:00 12.4 6 Este 8 Este 0 -- -- 87
2019-11-28 18:00:00 13.6 3 Sudeste 14 Norte 0 -- -- 83
2019-11-28 17:00:00 15.1 5 Norte 15 Noroeste 0 -- -- 75
2019-11-28 16:00:00 16.1 3 Noroeste 10 Oeste 0 -- -- 68
2019-11-28 15:00:00 16.6 6 Oeste 11 Oeste 0 -- -- 66
2019-11-28 14:00:00 15.5 4 Noroeste 12 Oeste 0 -- -- 69
2019-11-28 13:00:00 15.5 7 Oeste 13 Sudeste 0 -- -- 70
2019-11-28 12:00:00 14.2 8 Sudeste 13 Sudeste 0 -- -- 82
2019-11-28 11:00:00 12.7 12 Este 17 Sudeste 0 -- -- 93
2019-11-28 10:00:00 11.7 13 Sudeste 17 Sudeste 0 -- -- 97
2019-11-28 09:00:00 10.7 8 Sudeste 12 Este 0 -- -- 99
2019-11-28 08:00:00 9.9 5 Este 9 Sudeste 0 -- -- 98
2019-11-28 07:00:00 9.9 5 Sudeste 9 Sudeste 0 -- -- 96
2019-11-28 06:00:00 11.1 5 Sur 8 Sudeste 0 -- -- 97
2019-11-28 05:00:00 12 4 Sudeste 8 Sudoeste 0 -- -- 97
2019-11-28 04:00:00 12.1 3 Sur 6 Sur 0 -- -- 97
2019-11-28 03:00:00 12.2 5 Sudoeste 11 Oeste 0 -- -- 98
2019-11-28 02:00:00 12.4 6 Oeste 14 Oeste 0 -- -- 98
2019-11-28 01:00:00 12.6 9 Sudoeste 14 Sudoeste 0 -- -- 98
2019-11-28 00:00:00 12.2 3 Sudoeste 6 Sudoeste 0 -- -- 96
2019-11-27 23:00:00 12.7 4 Sur 7 Sur 0 -- -- 93
2019-11-27 22:00:00 13.5 0 Calma 8 Sur 0 -- -- 91
2019-11-27 21:00:00 13.8 5 Sur 8 Sur 0 -- -- 90
2019-11-27 20:00:00 13.9 2 Sur 9 Sur 0 -- -- 90
2019-11-27 19:00:00 14.2 5 Sur 10 Sur 0 -- -- 87
2019-11-27 18:00:00 14.9 5 Sur 15 Sudoeste 0 -- -- 83
2019-11-27 17:00:00 15.3 11 Sudoeste 18 Sudoeste 0 -- -- 78
2019-11-27 16:00:00 15.7 9 Sudoeste 18 Sudoeste 0 -- -- 81
2019-11-27 15:00:00 16.1 8 Sudoeste 20 Sudoeste 0 -- -- 81
2019-11-27 14:00:00 15.4 9 Oeste 26 Oeste 0 -- -- 88
2019-11-27 06:00:00 -- -- -- -- -- -- -- -- --
2019-11-27 05:00:00 -- -- -- -- -- -- -- -- --
2019-11-27 04:00:00 13.6 8 Sudoeste 24 Sudoeste 0.2 -- -- 98
2019-11-27 03:00:00 14 10 Sudoeste 26 Sudoeste 0.4 -- -- 98
2019-11-27 02:00:00 14.2 14 Sudoeste 29 Sudoeste 0 -- -- 97
2019-11-27 01:00:00 14.5 15 Sudoeste 25 Sudoeste 0 -- -- 94
2019-11-27 00:00:00 14.3 10 Sudoeste 22 Sudoeste 0.2 -- -- 94
2019-11-26 23:00:00 14.6 9 Sur 21 Sur 0 -- -- 92
2019-11-26 22:00:00 14.7 7 Sur 20 Sur 0 -- -- 93
2019-11-26 21:00:00 15.1 7 Sur 15 Sur 0 -- -- 95
2019-11-26 20:00:00 15.3 9 Sur 20 Sur 0 -- -- 96
2019-11-26 19:00:00 15.5 11 Sur 21 Sur 0 -- -- 97
2019-11-26 18:00:00 15.5 10 Sudoeste 24 Sudoeste 0.2 -- -- 97
2019-11-26 17:00:00 15.8 6 Sudoeste 15 Sudoeste 0 -- -- 97
2019-11-26 16:00:00 16.4 8 Oeste 16 Sudoeste 0 -- -- 92
2019-11-26 15:00:00 17.5 10 Sur 15 Sudoeste 0 -- -- 80
2019-11-26 14:00:00 17.1 8 Sudoeste 14 Sudoeste 0 -- -- 80
2019-11-26 13:00:00 16.6 8 Sudeste 14 Sudeste 0 -- -- 82
2019-11-26 12:00:00 15.7 9 Sudeste 19 Este 0 -- -- 88
2019-11-26 11:00:00 14.3 8 Sudeste 14 Sudeste 0 -- -- 98
2019-11-26 10:00:00 13.3 8 Sudeste 13 Sudeste 0 -- -- 100
2019-11-26 09:00:00 13 6 Sudeste 9 Sudeste 0 -- -- 100
2019-11-26 08:00:00 12.7 6 Sudeste 12 Sudeste 0 -- -- 100
2019-11-26 07:00:00 12.7 8 Sudeste 9 Sudeste 0 -- -- 100
2019-11-26 06:00:00 13.1 3 Sur 8 Sudeste 0 -- -- 100
2019-11-26 05:00:00 13.5 0 Calma 10 Sudoeste 0 -- -- 100
2019-11-26 04:00:00 13.5 0 Calma 12 Oeste 0.2 -- -- 100
2019-11-26 03:00:00 14.5 7 Oeste 15 Oeste 0 -- -- 100
2019-11-26 02:00:00 14.6 3 Sudoeste 7 Sudoeste 0 -- -- 100
2019-11-26 01:00:00 14.8 0 Calma 6 Oeste 0 -- -- 100
2019-11-26 00:00:00 14.9 5 Oeste 15 Oeste 0 -- -- 100
2019-11-25 23:00:00 15 6 Sudoeste 13 Sudoeste 0 -- -- 100
2019-11-25 22:00:00 15.1 7 Sudoeste 17 Sudoeste 0 -- -- 100
2019-11-25 21:00:00 15.1 9 Sudoeste 20 Sudoeste 0.4 -- -- 99
2019-11-25 20:00:00 15.2 10 Sudoeste 24 Sudoeste 0.2 -- -- 99
2019-11-25 19:00:00 15.2 14 Sudoeste 26 Sudoeste 0 -- -- 99
2019-11-25 18:00:00 15.2 12 Sudoeste 23 Sudoeste 0.2 -- -- 99
2019-11-25 17:00:00 15.2 12 Sudoeste 23 Sudoeste 0.6 -- -- 98
2019-11-25 16:00:00 15.2 13 Sudoeste 23 Sudoeste 0.2 -- -- 98
2019-11-25 15:00:00 15 13 Sudoeste 23 Oeste 0.4 -- -- 98
2019-11-25 14:00:00 14.7 10 Sudoeste 21 Sudoeste 0.6 -- -- 99
2019-11-25 13:00:00 13.8 8 Sudoeste 21 Sur 1.2 -- -- 98
2019-11-25 12:00:00 12.6 12 Sudeste 21 Sudeste 0 -- -- 98
2019-11-25 11:00:00 12.3 12 Sudeste 22 Sudeste 0.4 -- -- 98
2019-11-25 10:00:00 11.1 16 Sudeste 24 Sudeste 0.2 -- -- 98
2019-11-25 09:00:00 10.5 17 Sudeste 23 Sudeste 0 -- -- 98
2019-11-25 08:00:00 10.3 12 Sudeste 21 Sudeste 0 -- -- 97
2019-11-25 07:00:00 10.4 9 Sudeste 22 Sudeste 0.2 -- -- 96
2019-11-25 06:00:00 10.4 12 Sudeste 18 Sudeste 0 -- -- 95
2019-11-25 05:00:00 11 8 Sudeste 13 Sudeste 0 -- -- 91
2019-11-25 04:00:00 10.8 10 Sudeste 14 Sudeste 0 -- -- 90
2019-11-25 03:00:00 10.5 10 Sudeste 14 Sudeste 0 -- -- 90
2019-11-25 02:00:00 10.3 5 Sudeste 8 Sur 0 -- -- 90
2019-11-25 01:00:00 9.4 0 Calma 10 Sudeste 0 -- -- 92
2019-11-25 00:00:00 9.2 8 Sudeste 11 Sur 0 -- -- 89
2019-11-24 23:00:00 9.9 6 Sudeste 11 Sur 0 -- -- 87
2019-11-24 22:00:00 11.1 4 Sur 13 Sudoeste 0 -- -- 82
2019-11-24 21:00:00 10 10 Sudeste 12 Sudeste 0 -- -- 87
2019-11-24 20:00:00 9.3 0 Calma 5 Sur 0 -- -- 88
2019-11-24 19:00:00 10.6 2 Sur 8 Sudoeste 0 -- -- 85
2019-11-24 18:00:00 12.1 5 Sudoeste 16 Oeste 0 -- -- 77
2019-11-24 17:00:00 14 8 Sudoeste 17 Sudoeste 0 -- -- 66
2019-11-24 16:00:00 14.1 9 Oeste 22 Oeste 0 -- -- 67
2019-11-24 15:00:00 13.3 10 Oeste 18 Oeste 0 -- -- 69
2019-11-24 14:00:00 13.3 10 Oeste 14 Oeste 0 -- -- 67
2019-11-24 13:00:00 11.9 7 Oeste 16 Noroeste 0 -- -- 76
2019-11-24 12:00:00 10.5 4 Oeste 10 Sudoeste 0 -- -- 80
2019-11-24 11:00:00 10.1 3 Sudoeste 10 Este 0 -- -- 83
2019-11-24 10:00:00 8.5 6 Sudeste 9 Sudeste 0 -- -- 93
2019-11-24 09:00:00 4.7 2 Sudeste 6 Sur 0 -- -- 98
2019-11-24 08:00:00 3.6 3 Sudeste 8 Sudeste 0 -- -- 96
2019-11-24 07:00:00 4.4 4 Sur 9 Sudeste 0 -- -- 97
2019-11-24 06:00:00 4.6 5 Sudeste 8 Sudeste 0 -- -- 95
2019-11-24 05:00:00 4.7 0 Calma 7 Sudeste 0 -- -- 95
2019-11-24 04:00:00 5.1 0 Calma 7 Sudeste 0 -- -- 95
2019-11-24 03:00:00 5.2 5 Sudeste 7 Sudeste 0 -- -- 94
2019-11-24 02:00:00 6.2 2 Sudoeste 6 Sudoeste 0 -- -- 93
2019-11-24 01:00:00 6.9 3 Sur 8 Sur 0 -- -- 89
2019-11-24 00:00:00 7.4 4 Sur 9 Sur 0 -- -- 89
2019-11-23 23:00:00 7.2 3 Sudoeste 7 Sudoeste 0 -- -- 87
2019-11-23 22:00:00 7.8 4 Oeste 7 Oeste 0 -- -- 88
2019-11-23 21:00:00 8.5 2 Sudeste 12 Noroeste 0 -- -- 80
2019-11-23 20:00:00 10.3 12 Noroeste 18 Noroeste 0 -- -- 72
2019-11-23 19:00:00 11.1 6 Noroeste 21 Noroeste 0 -- -- 68
2019-11-23 18:00:00 12.6 13 Noroeste 28 Oeste 0 -- -- 66
2019-11-23 17:00:00 14 22 Oeste 37 Oeste 0 -- -- 58
2019-11-23 16:00:00 14 23 Oeste 44 Oeste 0 -- -- 59
2019-11-23 15:00:00 14.6 22 Oeste 38 Oeste 0 -- -- 61
2019-11-23 14:00:00 13.6 26 Oeste 39 Oeste 0 -- -- 72
2019-11-23 13:00:00 13.1 24 Oeste 51 Oeste 0 -- -- 74
2019-11-23 12:00:00 12.5 28 Oeste 48 Oeste 0 -- -- 76
2019-11-23 11:00:00 11.8 25 Oeste 42 Oeste 0 -- -- 87
2019-11-23 10:00:00 10.7 23 Oeste 36 Sudoeste 0 -- -- 96
2019-11-23 09:00:00 10.2 15 Oeste 33 Sudoeste 0.2 -- -- 98
2019-11-23 08:00:00 9.9 12 Oeste 27 Sudoeste 0 -- -- 96
2019-11-23 07:00:00 10.1 13 Oeste 33 Oeste 0.4 -- -- 96
2019-11-23 06:00:00 10.9 24 Oeste 44 Oeste 0.8 -- -- 96
2019-11-23 05:00:00 12 27 Sudoeste 53 Oeste 0 -- -- 84
2019-11-23 04:00:00 12.3 26 Sudoeste 49 Sudoeste 0 -- -- 85
2019-11-23 03:00:00 12.4 29 Sudoeste 49 Sudoeste 0 -- -- 88
2019-11-23 02:00:00 12.1 23 Sudoeste 42 Sudoeste 0 -- -- 89
2019-11-23 01:00:00 12.7 25 Sudoeste 42 Sudoeste 0 -- -- 88
2019-11-23 00:00:00 12.7 21 Sudoeste 40 Sudoeste 0 -- -- 90
2019-11-22 23:00:00 12.8 19 Sudoeste 33 Sudoeste 0 -- -- 90
2019-11-22 22:00:00 12.7 15 Sudoeste 31 Sudoeste 0 -- -- 93
2019-11-22 21:00:00 12.7 22 Sudoeste 42 Sudoeste 0 -- -- 98
2019-11-22 20:00:00 13.5 26 Oeste 50 Oeste 1 -- -- 98
2019-11-22 19:00:00 13.9 35 Oeste 67 Sudoeste 6.6 -- -- 99
2019-11-22 18:00:00 15.8 38 Sudoeste 75 Sudoeste 4.2 -- -- 97
2019-11-22 17:00:00 15.3 29 Sudoeste 65 Sur 2 -- -- 96
2019-11-22 16:00:00 15 24 Sudoeste 46 Sudoeste 6.2 -- -- 98
2019-11-22 15:00:00 14.3 18 Sur 33 Sur 3.6 -- -- 96
2019-11-22 14:00:00 14.5 18 Sur 33 Sur 0.8 -- -- 94
2019-11-22 13:00:00 14.7 19 Sur 30 Sur 1.4 -- -- 96
2019-11-22 12:00:00 14.1 16 Sur 27 Sudeste 0.2 -- -- 97
2019-11-22 11:00:00 13.5 15 Sudeste 24 Sudeste 1.4 -- -- 99
2019-11-22 10:00:00 12.8 15 Sudeste 24 Sudeste 0 -- -- 99
2019-11-22 09:00:00 12.2 13 Sudeste 21 Sudeste 0.2 -- -- 99
2019-11-22 08:00:00 11.9 10 Sudeste 18 Sudeste 3.4 -- -- 99
2019-11-22 07:00:00 11.9 8 Sudeste 15 Sudeste 0.6 -- -- 99
2019-11-22 06:00:00 11.8 10 Sudeste 17 Sudeste 0.6 -- -- 99
2019-11-22 05:00:00 11.7 9 Sudeste 18 Sudeste 1.8 -- -- 99
2019-11-22 04:00:00 11.7 11 Sudeste 16 Sudeste 0.8 -- -- 99
2019-11-22 03:00:00 11.7 9 Sudeste 14 Sudeste 3.6 -- -- 100
2019-11-22 02:00:00 11.7 10 Sudeste 19 Sur 1 -- -- 99
2019-11-22 01:00:00 11.6 10 Sudeste 17 Sur 0 -- -- 100
2019-11-22 00:00:00 11.7 11 Sudeste 16 Sudeste 0 -- -- 100
2019-11-21 23:00:00 11.6 9 Sudeste 19 Sudeste 0.4 -- -- 100
2019-11-21 22:00:00 11.4 5 Sudeste 14 Este 0.4 -- -- 100
2019-11-21 21:00:00 11.4 4 Este 13 Sur 2.8 -- -- 100
2019-11-21 20:00:00 11.5 11 Sur 18 Sur 3.8 -- -- 99
2019-11-21 19:00:00 11.4 12 Sudeste 18 Sudeste 0.6 -- -- 99
2019-11-21 18:00:00 11.6 5 Sudeste 8 Sur 1.4 -- -- 99
2019-11-21 17:00:00 11.7 4 Sudoeste 18 Oeste 6.4 -- -- 99
2019-11-21 16:00:00 12.1 6 Noroeste 46 Noroeste 15.8 -- -- 98
2019-11-21 15:00:00 13 0 Calma 20 Sur 3.4 -- -- 94
2019-11-21 14:00:00 13.4 10 Sudeste 18 Sudeste 1.4 -- -- 92
2019-11-21 13:00:00 13.3 10 Sudeste 18 Sudeste 0.2 -- -- 92
2019-11-21 12:00:00 12 13 Sudeste 21 Sudeste 0 -- -- 94
2019-11-21 11:00:00 11.1 14 Sudeste 22 Sudeste 0 -- -- 94
2019-11-21 10:00:00 10.8 5 Sudeste 24 Oeste 0.6 -- -- 96
2019-11-21 09:00:00 10.3 13 Sudeste 19 Sudeste 0.4 -- -- 97
2019-11-21 08:00:00 10 13 Sudeste 18 Sudeste 0.4 -- -- 97
2019-11-21 07:00:00 9.8 11 Sudeste 19 Sudeste 0 -- -- 97
2019-11-21 06:00:00 9.9 13 Sudeste 19 Sudeste 0 -- -- 97
2019-11-21 05:00:00 9.6 13 Sudeste 18 Sudeste 0.2 -- -- 97
2019-11-21 04:00:00 9.5 10 Sudeste 20 Sudeste 4 -- -- 97
2019-11-21 03:00:00 9.4 4 Este 21 Sudeste 0.8 -- -- 97
2019-11-21 02:00:00 9.3 12 Sudeste 22 Sudeste 1.6 -- -- 96
2019-11-21 01:00:00 9.3 8 Sudeste 18 Sudeste 0.2 -- -- 96
2019-11-21 00:00:00 9.5 9 Sudeste 14 Sudeste 1 -- -- 95
2019-11-20 23:00:00 9.5 10 Sudeste 13 Sudeste 0 -- -- 94
2019-11-20 22:00:00 9.8 3 Oeste 15 Sur 0 -- -- 94
2019-11-20 21:00:00 10.1 10 Sur 18 Sudeste 0 -- -- 93
2019-11-20 20:00:00 10.2 10 Sudeste 18 Sudeste 0 -- -- 94
2019-11-20 19:00:00 10 10 Sudeste 17 Este 0.8 -- -- 95
2019-11-20 18:00:00 9.9 12 Sudeste 20 Sudeste 1.2 -- -- 94
2019-11-20 17:00:00 10.2 12 Sudeste 21 Sudeste 1.2 -- -- 90
2019-11-20 16:00:00 10.8 14 Sudeste 24 Este 0 -- -- 86
2019-11-20 15:00:00 10 11 Este 17 Sudeste 0.6 -- -- 85
2019-11-20 14:00:00 10.5 8 Este 16 Este 0 -- -- 77
2019-11-20 13:00:00 10.2 5 Sudeste 20 Sudeste 0 -- -- 80
2019-11-20 12:00:00 10.4 14 Sudeste 23 Sudeste 0 -- -- 76
2019-11-20 11:00:00 9.5 13 Sudeste 20 Sudeste 0 -- -- 77
2019-11-20 10:00:00 8.2 12 Sudeste 17 Sudeste 0 -- -- 81
2019-11-20 09:00:00 5.8 13 Sudeste 17 Sudeste 0 -- -- 90
2019-11-20 08:00:00 4.7 8 Sudeste 14 Sudeste 0 -- -- 93
2019-11-20 07:00:00 4.5 3 Sudeste 7 Sudeste 0 -- -- 92
2019-11-20 06:00:00 5.5 0 Calma 9 Sudeste 0 -- -- 90
2019-11-20 05:00:00 5.8 7 Sudeste 13 Sudeste 0 -- -- 87
2019-11-20 04:00:00 6.7 8 Sudeste 14 Sudeste 0 -- -- 86
2019-11-20 03:00:00 7.4 9 Sudeste 15 Sudeste 0 -- -- 85
2019-11-20 02:00:00 7.4 7 Sudeste 15 Sudeste 0 -- -- 85
2019-11-20 01:00:00 6.9 9 Sudeste 12 Sudeste 0 -- -- 87
2019-11-20 00:00:00 8.2 9 Sudeste 12 Sudeste 0 -- -- 82
2019-11-19 23:00:00 8.4 0 Calma 8 Este 0 -- -- 80
2019-11-19 22:00:00 8.6 3 Este 6 Este 0 -- -- 79
2019-11-19 21:00:00 8.9 5 Este 8 Este 0 -- -- 79
2019-11-19 20:00:00 9.1 3 Este 6 Este 0 -- -- 83
2019-11-19 19:00:00 9.9 3 Este 4 Este 0 -- -- 76
2019-11-19 18:00:00 11.7 2 Nordeste 10 Noroeste 0 -- -- 68
2019-11-19 17:00:00 13.7 5 Noroeste 12 Noroeste 0 -- -- 60
2019-11-19 16:00:00 14 6 Noroeste 13 Norte 0 -- -- 57
2019-11-19 15:00:00 14 5 Noroeste 12 Noroeste 0 -- -- 61
2019-11-19 14:00:00 13.6 3 Norte 10 Norte 0 -- -- 63
2019-11-19 13:00:00 13.1 5 Oeste 12 Sur 0 -- -- 61
2019-11-19 12:00:00 11.8 8 Sudeste 18 Sudeste 0 -- -- 67
2019-11-19 11:00:00 10 15 Sudeste 20 Sudeste 0 -- -- 73
2019-11-19 10:00:00 7.4 6 Sudeste 13 Sudeste 0 -- -- 88
2019-11-19 09:00:00 5 2 Sudeste 10 Este 0 -- -- 92
2019-11-19 08:00:00 4.9 3 Sudeste 8 Sudeste 0 -- -- 94
2019-11-19 07:00:00 4.7 2 Este 17 Este 0 -- -- 93
2019-11-19 06:00:00 4.6 9 Sudeste 14 Sudeste 0 -- -- 96
2019-11-19 05:00:00 4.3 9 Sudeste 12 Sur 0 -- -- 95
2019-11-19 04:00:00 5.1 2 Sudoeste 14 Sudeste 0 -- -- 94
2019-11-19 03:00:00 5.7 10 Sudeste 14 Sudeste 0 -- -- 96
2019-11-19 02:00:00 4.5 3 Este 9 Este 0 -- -- 96
2019-11-19 01:00:00 4.5 2 Este 8 Este 0 -- -- 95
2019-11-19 00:00:00 4.7 0 Calma 8 Este 0 -- -- 94
2019-11-18 23:00:00 5 0 Calma 9 Sudeste 0 -- -- 94
2019-11-18 22:00:00 5.7 3 Este 11 Este 0 -- -- 91
2019-11-18 21:00:00 6.7 7 Este 8 Este 0 -- -- 90
2019-11-18 20:00:00 7.3 6 Sur 9 Sudeste 0 -- -- 89
2019-11-18 19:00:00 8.9 4 Este 5 Este 0 -- -- 83
2019-11-18 18:00:00 12.4 0 Calma 7 Noroeste 0 -- -- 66
2019-11-18 17:00:00 12.3 4 Oeste 16 Nordeste 0 -- -- 64
2019-11-18 16:00:00 13.5 9 Norte 22 Noroeste 0 -- -- 61
2019-11-18 15:00:00 13.5 8 Norte 23 Noroeste 0 -- -- 63
2019-11-18 14:00:00 13.2 8 Norte 22 Norte 0 -- -- 67
2019-11-18 13:00:00 12.1 9 Noroeste 14 Norte 0 -- -- 76
2019-11-18 12:00:00 10.5 4 Oeste 17 Oeste 0 -- -- 84
2019-11-18 11:00:00 9.2 9 Oeste 14 Oeste 0 -- -- 90
2019-11-18 10:00:00 7.7 9 Oeste 16 Oeste 0 -- -- 96
2019-11-18 09:00:00 6.9 10 Oeste 14 Oeste 0 -- -- 97
2019-11-18 08:00:00 6.4 6 Oeste 13 Oeste 0 -- -- 96
2019-11-18 07:00:00 7.3 2 Noroeste 20 Oeste 0 -- -- 96
2019-11-18 06:00:00 8.9 15 Oeste 21 Oeste 0 -- -- 98
2019-11-18 05:00:00 11 11 Oeste 27 Oeste 0.8 -- -- 99
2019-11-18 04:00:00 11.4 19 Oeste 39 Oeste 2 -- -- 98
2019-11-18 03:00:00 11.6 5 Sudoeste 39 Sudoeste 0.2 -- -- 97
2019-11-18 02:00:00 12.1 22 Sudoeste 53 Oeste 3 -- -- 98
2019-11-18 01:00:00 12.3 24 Sudoeste 44 Sudoeste 5.6 -- -- 98
2019-11-18 00:00:00 12.3 22 Sudoeste 44 Oeste 2 -- -- 97
2019-11-17 23:00:00 12.8 20 Sudoeste 33 Oeste 0 -- -- 97
2019-11-17 22:00:00 12.9 19 Sudoeste 37 Sudoeste 0 -- -- 97
2019-11-17 21:00:00 12.7 19 Sudoeste 33 Sudoeste 0.8 -- -- 97
2019-11-17 20:00:00 11.8 12 Sudoeste 22 Sur 0.4 -- -- 97
2019-11-17 19:00:00 10.8 3 Sudoeste 17 Sur 0.2 -- -- 97
2019-11-17 18:00:00 10.2 10 Sudeste 19 Sudeste 0.6 -- -- 98
2019-11-17 17:00:00 9.8 9 Sudeste 21 Sur 0.8 -- -- 98
2019-11-17 16:00:00 8.8 11 Sudeste 18 Sudeste 0 -- -- 97
2019-11-17 15:00:00 8.3 11 Sudeste 15 Sudeste 0.4 -- -- 97
2019-11-17 14:00:00 7.6 10 Sudeste 21 Sudeste 0 -- -- 96
2019-11-17 13:00:00 7.5 6 Sudeste 13 Sudeste 1 -- -- 96
2019-11-17 12:00:00 6.9 6 Sur 12 Sudeste 0.2 -- -- 95
2019-11-17 11:00:00 6.5 9 Sur 19 Sur 0 -- -- 94
2019-11-17 10:00:00 6.9 9 Sur 17 Sudeste 0 -- -- 78
2019-11-17 09:00:00 5 10 Sudeste 20 Sudeste 0 -- -- 82
2019-11-17 08:00:00 4.1 15 Sudeste 20 Sudeste 0 -- -- 83
2019-11-17 07:00:00 3.9 14 Sudeste 19 Sudeste 0 -- -- 84
2019-11-17 06:00:00 3.5 14 Sudeste 19 Sudeste 0 -- -- 84
2019-11-17 05:00:00 3.7 14 Sudeste 19 Sudeste 0 -- -- 83
2019-11-17 04:00:00 3.9 13 Sudeste 17 Sudeste 0 -- -- 82
2019-11-17 03:00:00 4 15 Sudeste 17 Sudeste 0 -- -- 82
2019-11-17 02:00:00 3.7 14 Sudeste 17 Sudeste 0 -- -- 83
2019-11-17 01:00:00 3.8 12 Sudeste 15 Sudeste 0 -- -- 84
2019-11-17 00:00:00 2.7 2 Sudeste 6 Sudeste 0 -- -- 86
2019-11-16 23:00:00 3.2 3 Sur 9 Sudeste 0 -- -- 84
2019-11-16 22:00:00 3.7 0 Calma 12 Sudeste 0 -- -- 81
2019-11-16 21:00:00 3.4 10 Sudeste 12 Sudeste 0 -- -- 83
2019-11-16 20:00:00 5 3 Sur 5 Sur 0 -- -- 78
2019-11-16 19:00:00 7.4 3 Sur 8 Sudoeste 0 -- -- 68
2019-11-16 18:00:00 10.3 6 Sudoeste 18 Oeste 0 -- -- 55
2019-11-16 17:00:00 11.7 12 Oeste 18 Oeste 0 -- -- 49
2019-11-16 16:00:00 12.1 9 Oeste 15 Oeste 0 -- -- 49
2019-11-16 15:00:00 11.6 6 Oeste 15 Oeste 0 -- -- 52
2019-11-16 14:00:00 10.8 6 Oeste 16 Oeste 0 -- -- 57
2019-11-16 13:00:00 10 6 Sudoeste 13 Oeste 0 -- -- 60
2019-11-16 12:00:00 8.5 6 Oeste 14 Oeste 0 -- -- 65
2019-11-16 11:00:00 6.6 9 Noroeste 12 Oeste 0 -- -- 74
2019-11-16 10:00:00 4.7 4 Sudoeste 9 Sudeste 0 -- -- 85
2019-11-16 09:00:00 1.4 7 Sudeste 9 Sudeste 0 -- -- 97
2019-11-16 08:00:00 -1.1 0 Calma 6 Sudeste 0 -- -- 94
2019-11-16 07:00:00 -0.6 3 Sudoeste 5 Sur 0 -- -- 94
2019-11-16 06:00:00 0 0 Calma 5 Sudoeste 0 -- -- 94
2019-11-16 05:00:00 0.2 0 Calma 4 Oeste 0 -- -- 94
2019-11-16 04:00:00 1.1 4 Sudeste 8 Sudeste 0 -- -- 95
2019-11-16 03:00:00 1.6 5 Sudeste 10 Sudeste 0 -- -- 92
2019-11-16 02:00:00 2 0 Calma 12 Sudeste 0 -- -- 91
2019-11-16 01:00:00 3.5 10 Sudeste 15 Sudeste 0 -- -- 88
2019-11-16 00:00:00 4.1 12 Sudeste 15 Sudeste 0 -- -- 88
2019-11-15 23:00:00 4.5 11 Sudeste 15 Este 0 -- -- 87
2019-11-15 22:00:00 5.2 12 Sudeste 15 Este 0 -- -- 85
2019-11-15 21:00:00 4.4 10 Sudeste 14 Sudeste 0 -- -- 89
2019-11-15 20:00:00 5.2 0 Calma 6 Sur 0 -- -- 83
2019-11-15 19:00:00 6.1 3 Sudoeste 5 Sudoeste 0 -- -- 81
2019-11-15 18:00:00 7.7 4 Sudoeste 8 Oeste 0 -- -- 74
2019-11-15 17:00:00 8.8 5 Oeste 16 Noroeste 0 -- -- 66
2019-11-15 16:00:00 8.9 13 Oeste 22 Oeste 0 -- -- 65
2019-11-15 15:00:00 9.5 15 Oeste 24 Oeste 0 -- -- 63
2019-11-15 14:00:00 10.1 14 Oeste 28 Oeste 0 -- -- 57
2019-11-15 13:00:00 9.3 15 Oeste 29 Oeste 0 -- -- 60
2019-11-15 12:00:00 8.9 12 Noroeste 25 Oeste 0 -- -- 63
2019-11-15 11:00:00 8.3 9 Oeste 17 Oeste 0 -- -- 82
2019-11-15 10:00:00 6.4 7 Oeste 14 Sudoeste 0 -- -- 92
2019-11-15 09:00:00 4.9 3 Sudoeste 9 Sudoeste 0 -- -- 95
2019-11-15 08:00:00 4.1 7 Oeste 11 Sudoeste 0 -- -- 94
2019-11-15 07:00:00 4.6 5 Oeste 13 Oeste 0 -- -- 92
2019-11-15 06:00:00 5.2 7 Oeste 21 Sudoeste 0 -- -- 91
2019-11-15 05:00:00 5.9 14 Sudoeste 24 Sudoeste 0 -- -- 91
2019-11-15 04:00:00 6.4 16 Sudoeste 28 Sudoeste 0 -- -- 88
2019-11-15 03:00:00 6.9 15 Sudoeste 25 Sudoeste 0 -- -- 88
2019-11-15 02:00:00 7.1 13 Sudoeste 26 Sudoeste 0 -- -- 89
2019-11-15 01:00:00 7.8 15 Sudoeste 29 Sudoeste 0 -- -- 85
2019-11-15 00:00:00 8 19 Sudoeste 33 Oeste 0 -- -- 84